sensor_id;sensor_type;location;lat;lon;timestamp;P1;durP1;ratioP1;P2;durP2;ratioP2
77597;SDS011;66756;42.774;23.354;2023-05-19T00:01:25;7.70;;;4.35;;
77597;SDS011;66756;42.774;23.354;2023-05-19T00:03:53;8.25;;;4.78;;
77597;SDS011;66756;42.774;23.354;2023-05-19T00:06:25;8.32;;;4.63;;
77597;SDS011;66756;42.774;23.354;2023-05-19T00:09:02;8.25;;;3.70;;
77597;SDS011;66756;42.774;23.354;2023-05-19T00:11:28;8.02;;;4.47;;
77597;SDS011;66756;42.774;23.354;2023-05-19T00:13:55;8.13;;;5.03;;
77597;SDS011;66756;42.774;23.354;2023-05-19T00:16:22;9.15;;;4.72;;
77597;SDS011;66756;42.774;23.354;2023-05-19T00:18:49;6.95;;;4.32;;
77597;SDS011;66756;42.774;23.354;2023-05-19T00:21:15;9.93;;;5.18;;
77597;SDS011;66756;42.774;23.354;2023-05-19T00:23:42;10.77;;;5.75;;
77597;SDS011;66756;42.774;23.354;2023-05-19T00:26:08;10.10;;;5.88;;
77597;SDS011;66756;42.774;23.354;2023-05-19T00:28:34;10.82;;;6.13;;
77597;SDS011;66756;42.774;23.354;2023-05-19T00:31:00;11.95;;;5.97;;
77597;SDS011;66756;42.774;23.354;2023-05-19T00:33:26;10.85;;;6.22;;
77597;SDS011;66756;42.774;23.354;2023-05-19T00:35:52;12.52;;;6.68;;
77597;SDS011;66756;42.774;23.354;2023-05-19T00:38:18;11.07;;;6.45;;
77597;SDS011;66756;42.774;23.354;2023-05-19T00:40:44;10.75;;;6.22;;
77597;SDS011;66756;42.774;23.354;2023-05-19T00:43:11;12.63;;;6.03;;
77597;SDS011;66756;42.774;23.354;2023-05-19T00:45:37;12.45;;;6.90;;
77597;SDS011;66756;42.774;23.354;2023-05-19T00:48:03;12.90;;;6.38;;
77597;SDS011;66756;42.774;23.354;2023-05-19T00:50:29;11.68;;;6.85;;
77597;SDS011;66756;42.774;23.354;2023-05-19T00:52:55;11.27;;;5.80;;
77597;SDS011;66756;42.774;23.354;2023-05-19T00:55:22;9.80;;;5.25;;
77597;SDS011;66756;42.774;23.354;2023-05-19T00:57:51;10.80;;;5.55;;
77597;SDS011;66756;42.774;23.354;2023-05-19T01:00:17;9.65;;;4.20;;
77597;SDS011;66756;42.774;23.354;2023-05-19T01:02:43;10.07;;;6.05;;
77597;SDS011;66756;42.774;23.354;2023-05-19T01:05:09;8.57;;;5.07;;
77597;SDS011;66756;42.774;23.354;2023-05-19T01:07:35;11.25;;;7.38;;
77597;SDS011;66756;42.774;23.354;2023-05-19T01:10:02;11.13;;;5.95;;
77597;SDS011;66756;42.774;23.354;2023-05-19T01:12:28;10.85;;;5.65;;
77597;SDS011;66756;42.774;23.354;2023-05-19T01:14:54;9.38;;;5.13;;
77597;SDS011;66756;42.774;23.354;2023-05-19T01:20:12;12.18;;;6.95;;
77597;SDS011;66756;42.774;23.354;2023-05-19T01:25:35;13.98;;;9.15;;
77597;SDS011;66756;42.774;23.354;2023-05-19T01:33:05;12.55;;;6.75;;
77597;SDS011;66756;42.774;23.354;2023-05-19T01:35:31;12.30;;;7.00;;
77597;SDS011;66756;42.774;23.354;2023-05-19T01:38:00;12.32;;;5.95;;
77597;SDS011;66756;42.774;23.354;2023-05-19T01:40:26;10.73;;;5.32;;
77597;SDS011;66756;42.774;23.354;2023-05-19T01:42:53;9.73;;;5.30;;
77597;SDS011;66756;42.774;23.354;2023-05-19T01:45:20;11.10;;;7.13;;
77597;SDS011;66756;42.774;23.354;2023-05-19T01:47:47;10.27;;;5.95;;
77597;SDS011;66756;42.774;23.354;2023-05-19T01:50:14;9.68;;;5.22;;
77597;SDS011;66756;42.774;23.354;2023-05-19T01:52:40;8.25;;;4.90;;
77597;SDS011;66756;42.774;23.354;2023-05-19T01:55:06;8.02;;;4.22;;
77597;SDS011;66756;42.774;23.354;2023-05-19T01:57:45;9.23;;;5.13;;
77597;SDS011;66756;42.774;23.354;2023-05-19T02:02:56;8.57;;;4.63;;
77597;SDS011;66756;42.774;23.354;2023-05-19T02:05:30;10.05;;;4.40;;
77597;SDS011;66756;42.774;23.354;2023-05-19T02:08:13;6.97;;;3.97;;
77597;SDS011;66756;42.774;23.354;2023-05-19T02:10:42;10.35;;;5.13;;
77597;SDS011;66756;42.774;23.354;2023-05-19T02:13:12;9.88;;;6.07;;
77597;SDS011;66756;42.774;23.354;2023-05-19T02:15:39;9.85;;;5.63;;
77597;SDS011;66756;42.774;23.354;2023-05-19T02:18:07;12.35;;;6.50;;
77597;SDS011;66756;42.774;23.354;2023-05-19T02:20:35;10.52;;;6.25;;
77597;SDS011;66756;42.774;23.354;2023-05-19T02:23:01;9.52;;;5.90;;
77597;SDS011;66756;42.774;23.354;2023-05-19T02:25:27;10.88;;;5.75;;
77597;SDS011;66756;42.774;23.354;2023-05-19T02:27:53;11.50;;;5.78;;
77597;SDS011;66756;42.774;23.354;2023-05-19T02:30:19;13.07;;;6.97;;
77597;SDS011;66756;42.774;23.354;2023-05-19T02:32:45;10.52;;;6.20;;
77597;SDS011;66756;42.774;23.354;2023-05-19T02:35:12;13.02;;;6.75;;
77597;SDS011;66756;42.774;23.354;2023-05-19T02:37:38;10.55;;;6.18;;
77597;SDS011;66756;42.774;23.354;2023-05-19T02:40:04;10.27;;;6.03;;
77597;SDS011;66756;42.774;23.354;2023-05-19T02:42:31;9.93;;;5.43;;
77597;SDS011;66756;42.774;23.354;2023-05-19T02:44:57;9.93;;;5.28;;
77597;SDS011;66756;42.774;23.354;2023-05-19T02:47:23;9.43;;;5.63;;
77597;SDS011;66756;42.774;23.354;2023-05-19T02:49:48;9.50;;;5.30;;
77597;SDS011;66756;42.774;23.354;2023-05-19T02:52:14;12.90;;;5.20;;
77597;SDS011;66756;42.774;23.354;2023-05-19T02:54:41;13.07;;;5.45;;
77597;SDS011;66756;42.774;23.354;2023-05-19T02:57:07;9.70;;;4.90;;
77597;SDS011;66756;42.774;23.354;2023-05-19T02:59:33;11.30;;;5.97;;
77597;SDS011;66756;42.774;23.354;2023-05-19T03:01:59;8.10;;;4.95;;
77597;SDS011;66756;42.774;23.354;2023-05-19T03:04:26;11.00;;;5.55;;
77597;SDS011;66756;42.774;23.354;2023-05-19T03:06:52;10.80;;;5.65;;
77597;SDS011;66756;42.774;23.354;2023-05-19T03:09:18;10.52;;;5.50;;
77597;SDS011;66756;42.774;23.354;2023-05-19T03:11:45;12.38;;;6.75;;
77597;SDS011;66756;42.774;23.354;2023-05-19T03:14:11;12.63;;;6.80;;
77597;SDS011;66756;42.774;23.354;2023-05-19T03:16:38;11.38;;;6.25;;
77597;SDS011;66756;42.774;23.354;2023-05-19T03:19:05;10.10;;;5.32;;
77597;SDS011;66756;42.774;23.354;2023-05-19T03:21:32;10.20;;;5.35;;
77597;SDS011;66756;42.774;23.354;2023-05-19T03:23:58;11.15;;;6.53;;
77597;SDS011;66756;42.774;23.354;2023-05-19T03:26:24;13.93;;;7.63;;
77597;SDS011;66756;42.774;23.354;2023-05-19T03:28:51;13.13;;;6.32;;
77597;SDS011;66756;42.774;23.354;2023-05-19T03:31:17;9.90;;;5.38;;
77597;SDS011;66756;42.774;23.354;2023-05-19T03:33:43;13.00;;;6.13;;
77597;SDS011;66756;42.774;23.354;2023-05-19T03:36:09;12.02;;;6.15;;
77597;SDS011;66756;42.774;23.354;2023-05-19T03:38:36;10.15;;;6.43;;
77597;SDS011;66756;42.774;23.354;2023-05-19T03:41:02;12.13;;;6.50;;
77597;SDS011;66756;42.774;23.354;2023-05-19T03:43:28;11.25;;;6.95;;
77597;SDS011;66756;42.774;23.354;2023-05-19T03:45:55;12.25;;;6.68;;
77597;SDS011;66756;42.774;23.354;2023-05-19T03:48:21;13.57;;;7.57;;
77597;SDS011;66756;42.774;23.354;2023-05-19T03:50:47;11.02;;;7.13;;
77597;SDS011;66756;42.774;23.354;2023-05-19T03:53:13;14.27;;;7.50;;
77597;SDS011;66756;42.774;23.354;2023-05-19T03:55:39;11.35;;;7.43;;
77597;SDS011;66756;42.774;23.354;2023-05-19T03:58:05;10.93;;;7.50;;
77597;SDS011;66756;42.774;23.354;2023-05-19T04:00:31;13.07;;;8.45;;
77597;SDS011;66756;42.774;23.354;2023-05-19T04:02:57;11.48;;;8.00;;
77597;SDS011;66756;42.774;23.354;2023-05-19T04:05:24;11.05;;;7.45;;
77597;SDS011;66756;42.774;23.354;2023-05-19T04:07:50;11.68;;;8.30;;
77597;SDS011;66756;42.774;23.354;2023-05-19T04:10:16;11.05;;;7.93;;
77597;SDS011;66756;42.774;23.354;2023-05-19T04:12:42;11.65;;;7.65;;
77597;SDS011;66756;42.774;23.354;2023-05-19T04:15:08;11.07;;;7.75;;
77597;SDS011;66756;42.774;23.354;2023-05-19T04:17:36;10.00;;;7.82;;
77597;SDS011;66756;42.774;23.354;2023-05-19T04:20:05;9.98;;;7.28;;
77597;SDS011;66756;42.774;23.354;2023-05-19T04:22:31;10.90;;;8.32;;
77597;SDS011;66756;42.774;23.354;2023-05-19T04:24:57;11.32;;;8.77;;
77597;SDS011;66756;42.774;23.354;2023-05-19T04:27:24;10.80;;;7.75;;
77597;SDS011;66756;42.774;23.354;2023-05-19T04:29:52;11.00;;;9.20;;
77597;SDS011;66756;42.774;23.354;2023-05-19T04:32:18;10.43;;;8.38;;
77597;SDS011;66756;42.774;23.354;2023-05-19T04:34:44;10.40;;;8.00;;
77597;SDS011;66756;42.774;23.354;2023-05-19T04:37:11;10.05;;;7.30;;
77597;SDS011;66756;42.774;23.354;2023-05-19T04:39:41;10.27;;;7.53;;
77597;SDS011;66756;42.774;23.354;2023-05-19T04:42:09;10.65;;;7.88;;
77597;SDS011;66756;42.774;23.354;2023-05-19T04:44:35;9.15;;;6.75;;
77597;SDS011;66756;42.774;23.354;2023-05-19T04:47:02;9.52;;;7.25;;
77597;SDS011;66756;42.774;23.354;2023-05-19T04:49:30;8.60;;;6.38;;
77597;SDS011;66756;42.774;23.354;2023-05-19T04:51:56;8.77;;;6.45;;
77597;SDS011;66756;42.774;23.354;2023-05-19T04:54:22;9.88;;;7.43;;
77597;SDS011;66756;42.774;23.354;2023-05-19T04:56:48;8.93;;;6.10;;
77597;SDS011;66756;42.774;23.354;2023-05-19T04:59:14;9.10;;;6.57;;
77597;SDS011;66756;42.774;23.354;2023-05-19T05:01:40;11.10;;;7.47;;
77597;SDS011;66756;42.774;23.354;2023-05-19T05:04:07;11.50;;;8.00;;
77597;SDS011;66756;42.774;23.354;2023-05-19T05:06:33;10.50;;;7.80;;
77597;SDS011;66756;42.774;23.354;2023-05-19T05:09:02;11.00;;;7.32;;
77597;SDS011;66756;42.774;23.354;2023-05-19T05:11:28;12.88;;;7.55;;
77597;SDS011;66756;42.774;23.354;2023-05-19T05:13:54;9.57;;;7.20;;
77597;SDS011;66756;42.774;23.354;2023-05-19T05:16:22;10.55;;;6.40;;
77597;SDS011;66756;42.774;23.354;2023-05-19T05:18:48;10.32;;;6.60;;
77597;SDS011;66756;42.774;23.354;2023-05-19T05:21:14;10.77;;;6.85;;
77597;SDS011;66756;42.774;23.354;2023-05-19T05:23:40;10.68;;;6.15;;
77597;SDS011;66756;42.774;23.354;2023-05-19T05:26:13;11.55;;;7.55;;
77597;SDS011;66756;42.774;23.354;2023-05-19T05:28:42;10.30;;;7.55;;
77597;SDS011;66756;42.774;23.354;2023-05-19T05:31:08;11.10;;;6.78;;
77597;SDS011;66756;42.774;23.354;2023-05-19T05:33:34;9.98;;;6.53;;
77597;SDS011;66756;42.774;23.354;2023-05-19T05:36:00;10.68;;;6.88;;
77597;SDS011;66756;42.774;23.354;2023-05-19T05:38:26;10.80;;;7.05;;
77597;SDS011;66756;42.774;23.354;2023-05-19T05:40:52;9.90;;;6.90;;
77597;SDS011;66756;42.774;23.354;2023-05-19T05:43:18;10.18;;;6.63;;
77597;SDS011;66756;42.774;23.354;2023-05-19T05:45:44;9.35;;;6.90;;
77597;SDS011;66756;42.774;23.354;2023-05-19T05:48:10;10.52;;;7.28;;
77597;SDS011;66756;42.774;23.354;2023-05-19T05:50:36;9.77;;;6.45;;
77597;SDS011;66756;42.774;23.354;2023-05-19T05:53:02;10.38;;;6.53;;
77597;SDS011;66756;42.774;23.354;2023-05-19T05:55:31;9.48;;;6.90;;
77597;SDS011;66756;42.774;23.354;2023-05-19T05:57:57;10.93;;;7.22;;
77597;SDS011;66756;42.774;23.354;2023-05-19T06:00:26;10.65;;;6.72;;
77597;SDS011;66756;42.774;23.354;2023-05-19T06:02:52;10.07;;;6.88;;
77597;SDS011;66756;42.774;23.354;2023-05-19T06:05:18;10.50;;;6.50;;
77597;SDS011;66756;42.774;23.354;2023-05-19T06:07:44;9.70;;;6.40;;
77597;SDS011;66756;42.774;23.354;2023-05-19T06:10:11;9.48;;;5.60;;
77597;SDS011;66756;42.774;23.354;2023-05-19T06:12:37;9.38;;;6.18;;
77597;SDS011;66756;42.774;23.354;2023-05-19T06:15:04;9.40;;;6.78;;
77597;SDS011;66756;42.774;23.354;2023-05-19T06:17:30;10.80;;;6.88;;
77597;SDS011;66756;42.774;23.354;2023-05-19T06:19:59;10.18;;;6.30;;
77597;SDS011;66756;42.774;23.354;2023-05-19T06:22:25;10.40;;;5.80;;
77597;SDS011;66756;42.774;23.354;2023-05-19T06:24:52;8.30;;;6.03;;
77597;SDS011;66756;42.774;23.354;2023-05-19T06:27:18;10.93;;;6.20;;
77597;SDS011;66756;42.774;23.354;2023-05-19T06:29:44;9.00;;;5.43;;
77597;SDS011;66756;42.774;23.354;2023-05-19T06:32:10;8.45;;;6.43;;
77597;SDS011;66756;42.774;23.354;2023-05-19T06:34:36;7.82;;;5.53;;
77597;SDS011;66756;42.774;23.354;2023-05-19T06:37:04;10.38;;;6.30;;
77597;SDS011;66756;42.774;23.354;2023-05-19T06:39:30;8.02;;;5.68;;
77597;SDS011;66756;42.774;23.354;2023-05-19T06:41:56;11.68;;;6.97;;
77597;SDS011;66756;42.774;23.354;2023-05-19T06:44:22;9.23;;;5.90;;
77597;SDS011;66756;42.774;23.354;2023-05-19T06:46:48;8.23;;;5.07;;
77597;SDS011;66756;42.774;23.354;2023-05-19T06:49:14;11.13;;;5.75;;
77597;SDS011;66756;42.774;23.354;2023-05-19T06:51:40;8.00;;;5.53;;
77597;SDS011;66756;42.774;23.354;2023-05-19T06:54:06;9.02;;;5.25;;
77597;SDS011;66756;42.774;23.354;2023-05-19T06:56:35;7.90;;;5.35;;
77597;SDS011;66756;42.774;23.354;2023-05-19T06:59:01;8.90;;;5.13;;
77597;SDS011;66756;42.774;23.354;2023-05-19T07:01:27;9.15;;;4.47;;
77597;SDS011;66756;42.774;23.354;2023-05-19T07:03:54;7.22;;;5.40;;
77597;SDS011;66756;42.774;23.354;2023-05-19T07:06:20;10.57;;;5.63;;
77597;SDS011;66756;42.774;23.354;2023-05-19T07:08:46;9.55;;;5.90;;
77597;SDS011;66756;42.774;23.354;2023-05-19T07:11:12;8.57;;;5.47;;
77597;SDS011;66756;42.774;23.354;2023-05-19T07:13:38;7.78;;;5.45;;
77597;SDS011;66756;42.774;23.354;2023-05-19T07:16:04;8.55;;;5.65;;
77597;SDS011;66756;42.774;23.354;2023-05-19T07:18:30;6.75;;;4.63;;
77597;SDS011;66756;42.774;23.354;2023-05-19T07:20:56;6.78;;;5.00;;
77597;SDS011;66756;42.774;23.354;2023-05-19T07:23:24;7.50;;;4.53;;
77597;SDS011;66756;42.774;23.354;2023-05-19T07:25:52;9.18;;;6.05;;
77597;SDS011;66756;42.774;23.354;2023-05-19T07:28:20;8.68;;;4.68;;
77597;SDS011;66756;42.774;23.354;2023-05-19T07:30:46;7.40;;;5.28;;
77597;SDS011;66756;42.774;23.354;2023-05-19T07:33:13;7.22;;;4.68;;
77597;SDS011;66756;42.774;23.354;2023-05-19T07:35:39;9.10;;;6.97;;
77597;SDS011;66756;42.774;23.354;2023-05-19T07:38:05;6.22;;;4.60;;
77597;SDS011;66756;42.774;23.354;2023-05-19T07:40:31;7.07;;;4.63;;
77597;SDS011;66756;42.774;23.354;2023-05-19T07:42:57;8.70;;;5.43;;
77597;SDS011;66756;42.774;23.354;2023-05-19T07:45:23;8.20;;;4.72;;
77597;SDS011;66756;42.774;23.354;2023-05-19T07:47:49;7.57;;;4.82;;
77597;SDS011;66756;42.774;23.354;2023-05-19T07:50:16;7.18;;;5.10;;
77597;SDS011;66756;42.774;23.354;2023-05-19T07:52:42;8.73;;;5.55;;
77597;SDS011;66756;42.774;23.354;2023-05-19T07:55:08;9.50;;;5.13;;
77597;SDS011;66756;42.774;23.354;2023-05-19T07:57:36;8.27;;;5.60;;
77597;SDS011;66756;42.774;23.354;2023-05-19T08:00:02;6.55;;;5.85;;
77597;SDS011;66756;42.774;23.354;2023-05-19T08:02:32;6.78;;;5.28;;
77597;SDS011;66756;42.774;23.354;2023-05-19T08:04:58;6.00;;;4.85;;
77597;SDS011;66756;42.774;23.354;2023-05-19T08:07:24;8.88;;;5.43;;
77597;SDS011;66756;42.774;23.354;2023-05-19T08:09:50;8.00;;;4.72;;
77597;SDS011;66756;42.774;23.354;2023-05-19T08:12:16;7.45;;;4.47;;
77597;SDS011;66756;42.774;23.354;2023-05-19T08:14:42;7.40;;;5.38;;
77597;SDS011;66756;42.774;23.354;2023-05-19T08:17:08;7.93;;;4.82;;
77597;SDS011;66756;42.774;23.354;2023-05-19T08:19:34;7.15;;;5.63;;
77597;SDS011;66756;42.774;23.354;2023-05-19T08:22:00;6.88;;;5.75;;
77597;SDS011;66756;42.774;23.354;2023-05-19T08:24:26;7.35;;;5.20;;
77597;SDS011;66756;42.774;23.354;2023-05-19T08:26:57;8.20;;;6.18;;
77597;SDS011;66756;42.774;23.354;2023-05-19T08:29:23;7.25;;;5.63;;
77597;SDS011;66756;42.774;23.354;2023-05-19T08:31:49;8.50;;;5.05;;
77597;SDS011;66756;42.774;23.354;2023-05-19T08:34:17;8.50;;;5.55;;
77597;SDS011;66756;42.774;23.354;2023-05-19T08:36:43;10.40;;;6.45;;
77597;SDS011;66756;42.774;23.354;2023-05-19T08:39:10;9.35;;;6.47;;
77597;SDS011;66756;42.774;23.354;2023-05-19T08:41:37;7.13;;;5.22;;
77597;SDS011;66756;42.774;23.354;2023-05-19T08:44:04;8.40;;;5.55;;
77597;SDS011;66756;42.774;23.354;2023-05-19T08:46:30;8.48;;;5.80;;
77597;SDS011;66756;42.774;23.354;2023-05-19T08:49:01;8.95;;;6.47;;
77597;SDS011;66756;42.774;23.354;2023-05-19T08:51:34;9.07;;;5.22;;
77597;SDS011;66756;42.774;23.354;2023-05-19T08:54:11;7.22;;;5.15;;
77597;SDS011;66756;42.774;23.354;2023-05-19T08:56:38;8.45;;;6.07;;
77597;SDS011;66756;42.774;23.354;2023-05-19T08:59:05;6.95;;;5.25;;
77597;SDS011;66756;42.774;23.354;2023-05-19T09:01:32;7.53;;;6.20;;
77597;SDS011;66756;42.774;23.354;2023-05-19T09:03:58;9.68;;;5.75;;
77597;SDS011;66756;42.774;23.354;2023-05-19T09:06:24;10.68;;;6.53;;
77597;SDS011;66756;42.774;23.354;2023-05-19T09:08:51;8.25;;;6.07;;
77597;SDS011;66756;42.774;23.354;2023-05-19T09:11:17;10.65;;;6.40;;
77597;SDS011;66756;42.774;23.354;2023-05-19T09:13:43;8.70;;;5.93;;
77597;SDS011;66756;42.774;23.354;2023-05-19T09:16:10;9.63;;;5.95;;
77597;SDS011;66756;42.774;23.354;2023-05-19T09:18:37;9.77;;;6.25;;
77597;SDS011;66756;42.774;23.354;2023-05-19T09:21:04;9.45;;;6.22;;
77597;SDS011;66756;42.774;23.354;2023-05-19T09:23:31;9.18;;;7.20;;
77597;SDS011;66756;42.774;23.354;2023-05-19T09:26:00;8.80;;;6.20;;
77597;SDS011;66756;42.774;23.354;2023-05-19T09:30:57;11.77;;;7.00;;
77597;SDS011;66756;42.774;23.354;2023-05-19T09:33:24;10.65;;;6.75;;
77597;SDS011;66756;42.774;23.354;2023-05-19T09:35:50;8.50;;;6.50;;
77597;SDS011;66756;42.774;23.354;2023-05-19T09:38:16;12.75;;;7.68;;
77597;SDS011;66756;42.774;23.354;2023-05-19T09:40:43;9.75;;;7.05;;
77597;SDS011;66756;42.774;23.354;2023-05-19T09:43:09;8.73;;;6.60;;
77597;SDS011;66756;42.774;23.354;2023-05-19T09:45:35;8.48;;;6.22;;
77597;SDS011;66756;42.774;23.354;2023-05-19T09:48:04;11.15;;;7.43;;
77597;SDS011;66756;42.774;23.354;2023-05-19T09:50:31;13.27;;;7.53;;
77597;SDS011;66756;42.774;23.354;2023-05-19T09:52:57;10.88;;;6.50;;
77597;SDS011;66756;42.774;23.354;2023-05-19T09:55:25;10.00;;;7.22;;
77597;SDS011;66756;42.774;23.354;2023-05-19T09:57:51;10.57;;;5.90;;
77597;SDS011;66756;42.774;23.354;2023-05-19T10:00:20;9.43;;;5.82;;
77597;SDS011;66756;42.774;23.354;2023-05-19T10:02:47;8.23;;;6.35;;
77597;SDS011;66756;42.774;23.354;2023-05-19T10:05:16;11.05;;;7.93;;
77597;SDS011;66756;42.774;23.354;2023-05-19T10:07:44;10.65;;;7.40;;
77597;SDS011;66756;42.774;23.354;2023-05-19T10:10:12;10.30;;;7.78;;
77597;SDS011;66756;42.774;23.354;2023-05-19T10:12:39;9.20;;;6.15;;
77597;SDS011;66756;42.774;23.354;2023-05-19T10:15:07;10.10;;;6.70;;
77597;SDS011;66756;42.774;23.354;2023-05-19T10:17:34;10.80;;;6.55;;
77597;SDS011;66756;42.774;23.354;2023-05-19T10:20:00;9.57;;;6.72;;
77597;SDS011;66756;42.774;23.354;2023-05-19T10:22:28;10.52;;;6.30;;
77597;SDS011;66756;42.774;23.354;2023-05-19T10:24:54;9.00;;;6.60;;
77597;SDS011;66756;42.774;23.354;2023-05-19T10:27:20;10.20;;;6.30;;
77597;SDS011;66756;42.774;23.354;2023-05-19T10:29:48;7.80;;;6.28;;
77597;SDS011;66756;42.774;23.354;2023-05-19T10:32:15;8.55;;;6.47;;
77597;SDS011;66756;42.774;23.354;2023-05-19T10:34:47;8.73;;;5.57;;
77597;SDS011;66756;42.774;23.354;2023-05-19T10:37:29;12.18;;;6.25;;
77597;SDS011;66756;42.774;23.354;2023-05-19T10:39:57;8.90;;;6.50;;
77597;SDS011;66756;42.774;23.354;2023-05-19T10:42:35;10.38;;;5.80;;
77597;SDS011;66756;42.774;23.354;2023-05-19T10:45:12;11.20;;;6.35;;
77597;SDS011;66756;42.774;23.354;2023-05-19T10:50:06;8.13;;;5.93;;
77597;SDS011;66756;42.774;23.354;2023-05-19T10:52:35;10.65;;;6.38;;
77597;SDS011;66756;42.774;23.354;2023-05-19T10:55:01;8.55;;;5.65;;
77597;SDS011;66756;42.774;23.354;2023-05-19T10:57:28;8.52;;;5.75;;
77597;SDS011;66756;42.774;23.354;2023-05-19T10:59:57;8.63;;;6.18;;
77597;SDS011;66756;42.774;23.354;2023-05-19T11:02:45;8.65;;;6.22;;
77597;SDS011;66756;42.774;23.354;2023-05-19T11:07:42;10.38;;;6.18;;
77597;SDS011;66756;42.774;23.354;2023-05-19T11:10:08;8.35;;;6.80;;
77597;SDS011;66756;42.774;23.354;2023-05-19T11:12:41;8.80;;;6.03;;
77597;SDS011;66756;42.774;23.354;2023-05-19T11:15:13;8.90;;;5.85;;
77597;SDS011;66756;42.774;23.354;2023-05-19T11:17:40;7.88;;;6.20;;
77597;SDS011;66756;42.774;23.354;2023-05-19T11:20:07;9.38;;;6.20;;
77597;SDS011;66756;42.774;23.354;2023-05-19T11:22:36;8.20;;;5.72;;
77597;SDS011;66756;42.774;23.354;2023-05-19T11:25:02;7.60;;;5.53;;
77597;SDS011;66756;42.774;23.354;2023-05-19T11:29:55;9.18;;;5.70;;
77597;SDS011;66756;42.774;23.354;2023-05-19T11:32:30;11.75;;;6.43;;
77597;SDS011;66756;42.774;23.354;2023-05-19T11:35:03;8.93;;;6.07;;
77597;SDS011;66756;42.774;23.354;2023-05-19T11:37:32;9.35;;;5.88;;
77597;SDS011;66756;42.774;23.354;2023-05-19T11:40:04;6.97;;;5.05;;
77597;SDS011;66756;42.774;23.354;2023-05-19T11:42:31;8.55;;;5.20;;
77597;SDS011;66756;42.774;23.354;2023-05-19T11:44:58;8.20;;;4.93;;
77597;SDS011;66756;42.774;23.354;2023-05-19T11:47:24;7.75;;;4.80;;
77597;SDS011;66756;42.774;23.354;2023-05-19T11:49:52;9.43;;;6.30;;
77597;SDS011;66756;42.774;23.354;2023-05-19T11:52:22;8.00;;;5.75;;
77597;SDS011;66756;42.774;23.354;2023-05-19T11:54:48;6.97;;;5.50;;
77597;SDS011;66756;42.774;23.354;2023-05-19T11:57:14;7.85;;;4.88;;
77597;SDS011;66756;42.774;23.354;2023-05-19T11:59:40;7.60;;;5.07;;
77597;SDS011;66756;42.774;23.354;2023-05-19T12:02:22;7.40;;;5.28;;
77597;SDS011;66756;42.774;23.354;2023-05-19T12:04:49;8.52;;;4.30;;
77597;SDS011;66756;42.774;23.354;2023-05-19T12:07:16;8.90;;;4.75;;
77597;SDS011;66756;42.774;23.354;2023-05-19T12:09:43;8.30;;;4.65;;
77597;SDS011;66756;42.774;23.354;2023-05-19T12:12:11;8.80;;;4.68;;
77597;SDS011;66756;42.774;23.354;2023-05-19T12:14:37;8.55;;;3.90;;
77597;SDS011;66756;42.774;23.354;2023-05-19T12:17:13;6.85;;;4.00;;
77597;SDS011;66756;42.774;23.354;2023-05-19T12:19:41;7.82;;;4.20;;
77597;SDS011;66756;42.774;23.354;2023-05-19T12:22:08;5.35;;;3.65;;
77597;SDS011;66756;42.774;23.354;2023-05-19T12:24:35;7.00;;;4.30;;
77597;SDS011;66756;42.774;23.354;2023-05-19T12:27:12;5.75;;;4.43;;
77597;SDS011;66756;42.774;23.354;2023-05-19T12:29:38;6.60;;;4.07;;
77597;SDS011;66756;42.774;23.354;2023-05-19T12:32:07;6.60;;;4.07;;
77597;SDS011;66756;42.774;23.354;2023-05-19T12:34:35;6.13;;;3.70;;
77597;SDS011;66756;42.774;23.354;2023-05-19T12:37:02;7.15;;;5.07;;
77597;SDS011;66756;42.774;23.354;2023-05-19T12:39:28;7.38;;;4.47;;
77597;SDS011;66756;42.774;23.354;2023-05-19T12:42:01;5.78;;;3.53;;
77597;SDS011;66756;42.774;23.354;2023-05-19T12:44:27;6.97;;;4.10;;
77597;SDS011;66756;42.774;23.354;2023-05-19T12:46:55;4.95;;;3.50;;
77597;SDS011;66756;42.774;23.354;2023-05-19T12:49:22;7.57;;;4.13;;
77597;SDS011;66756;42.774;23.354;2023-05-19T12:51:51;5.28;;;3.50;;
77597;SDS011;66756;42.774;23.354;2023-05-19T12:54:19;5.60;;;3.58;;
77597;SDS011;66756;42.774;23.354;2023-05-19T12:56:51;7.45;;;4.53;;
77597;SDS011;66756;42.774;23.354;2023-05-19T12:59:21;5.53;;;3.65;;
77597;SDS011;66756;42.774;23.354;2023-05-19T13:01:56;5.90;;;3.60;;
77597;SDS011;66756;42.774;23.354;2023-05-19T13:04:26;7.03;;;4.35;;
77597;SDS011;66756;42.774;23.354;2023-05-19T13:06:53;9.52;;;5.90;;
77597;SDS011;66756;42.774;23.354;2023-05-19T13:09:19;7.28;;;3.80;;
77597;SDS011;66756;42.774;23.354;2023-05-19T13:11:45;6.22;;;4.20;;
77597;SDS011;66756;42.774;23.354;2023-05-19T13:14:18;7.28;;;4.00;;
77597;SDS011;66756;42.774;23.354;2023-05-19T13:16:45;8.35;;;5.43;;
77597;SDS011;66756;42.774;23.354;2023-05-19T13:19:15;6.43;;;4.15;;
77597;SDS011;66756;42.774;23.354;2023-05-19T13:21:42;8.73;;;4.78;;
77597;SDS011;66756;42.774;23.354;2023-05-19T13:24:08;8.68;;;4.82;;
77597;SDS011;66756;42.774;23.354;2023-05-19T13:26:34;8.32;;;4.93;;
77597;SDS011;66756;42.774;23.354;2023-05-19T13:29:00;7.20;;;4.53;;
77597;SDS011;66756;42.774;23.354;2023-05-19T13:31:27;7.57;;;4.63;;
77597;SDS011;66756;42.774;23.354;2023-05-19T13:33:53;5.55;;;4.30;;
77597;SDS011;66756;42.774;23.354;2023-05-19T13:36:19;8.93;;;4.40;;
77597;SDS011;66756;42.774;23.354;2023-05-19T13:38:45;7.95;;;4.88;;
77597;SDS011;66756;42.774;23.354;2023-05-19T13:41:11;7.32;;;4.13;;
77597;SDS011;66756;42.774;23.354;2023-05-19T13:43:38;6.72;;;4.57;;
77597;SDS011;66756;42.774;23.354;2023-05-19T13:46:04;6.20;;;3.70;;
77597;SDS011;66756;42.774;23.354;2023-05-19T13:48:30;8.32;;;3.72;;
77597;SDS011;66756;42.774;23.354;2023-05-19T13:50:56;7.32;;;4.85;;
77597;SDS011;66756;42.774;23.354;2023-05-19T13:53:22;7.22;;;4.07;;
77597;SDS011;66756;42.774;23.354;2023-05-19T13:55:48;6.50;;;4.05;;
77597;SDS011;66756;42.774;23.354;2023-05-19T13:58:16;7.75;;;4.35;;
77597;SDS011;66756;42.774;23.354;2023-05-19T14:00:42;5.85;;;4.50;;
77597;SDS011;66756;42.774;23.354;2023-05-19T14:03:08;5.88;;;4.63;;
77597;SDS011;66756;42.774;23.354;2023-05-19T14:05:34;6.30;;;4.85;;
77597;SDS011;66756;42.774;23.354;2023-05-19T14:08:01;7.50;;;4.22;;
77597;SDS011;66756;42.774;23.354;2023-05-19T14:10:27;6.78;;;4.57;;
77597;SDS011;66756;42.774;23.354;2023-05-19T14:12:53;6.20;;;4.95;;
77597;SDS011;66756;42.774;23.354;2023-05-19T14:15:23;7.20;;;4.30;;
77597;SDS011;66756;42.774;23.354;2023-05-19T14:17:49;6.97;;;4.72;;
77597;SDS011;66756;42.774;23.354;2023-05-19T14:20:16;7.82;;;4.93;;
77597;SDS011;66756;42.774;23.354;2023-05-19T14:22:43;6.90;;;4.65;;
77597;SDS011;66756;42.774;23.354;2023-05-19T14:25:09;7.50;;;4.70;;
77597;SDS011;66756;42.774;23.354;2023-05-19T14:27:35;8.07;;;5.03;;
77597;SDS011;66756;42.774;23.354;2023-05-19T14:30:01;6.63;;;5.22;;
77597;SDS011;66756;42.774;23.354;2023-05-19T14:32:27;7.05;;;4.80;;
77597;SDS011;66756;42.774;23.354;2023-05-19T14:34:53;7.50;;;4.38;;
77597;SDS011;66756;42.774;23.354;2023-05-19T14:37:19;11.68;;;4.82;;
77597;SDS011;66756;42.774;23.354;2023-05-19T14:39:45;8.95;;;4.88;;
77597;SDS011;66756;42.774;23.354;2023-05-19T14:42:11;7.57;;;4.43;;
77597;SDS011;66756;42.774;23.354;2023-05-19T14:44:37;7.85;;;4.97;;
77597;SDS011;66756;42.774;23.354;2023-05-19T14:47:03;7.15;;;4.72;;
77597;SDS011;66756;42.774;23.354;2023-05-19T14:49:31;6.95;;;4.55;;
77597;SDS011;66756;42.774;23.354;2023-05-19T14:51:57;6.75;;;5.22;;